createdAt,value
2019-01-17T00:02:23.807Z,22.43
2019-01-17T00:05:30.364Z,17.73
2019-01-17T00:08:30.692Z,19.33
2019-01-17T00:11:18.616Z,21.77
2019-01-17T00:13:54.623Z,20.13
2019-01-17T00:16:31.398Z,20.93
2019-01-17T00:19:31.467Z,19.93
2019-01-17T00:22:11.978Z,21.00
2019-01-17T00:24:55.707Z,24.40
2019-01-17T00:27:37.043Z,20.93
2019-01-17T00:30:26.082Z,22.37
2019-01-17T00:33:14.034Z,22.23
2019-01-17T00:36:11.551Z,23.90
2019-01-17T00:39:11.743Z,21.77
2019-01-17T00:42:02.423Z,23.63
2019-01-17T00:44:50.315Z,22.47
2019-01-17T00:47:37.134Z,23.57
2019-01-17T00:50:35.449Z,23.80
2019-01-17T00:53:18.827Z,23.50
2019-01-17T00:56:09.626Z,21.17
2019-01-17T00:59:00.652Z,21.47
2019-01-17T01:01:47.538Z,19.30
2019-01-17T01:04:25.332Z,24.50
2019-01-17T01:07:12.058Z,19.97
2019-01-17T01:10:05.975Z,21.37
2019-01-17T01:13:00.476Z,20.97
2019-01-17T01:15:47.293Z,23.00
2019-01-17T01:18:34.137Z,17.07
2019-01-17T01:21:19.487Z,19.23
2019-01-17T01:24:15.555Z,21.33
2019-01-17T01:27:08.550Z,22.20
2019-01-17T01:30:05.339Z,20.90
2019-01-17T01:33:02.323Z,22.33
2019-01-17T01:35:54.998Z,22.30
2019-01-17T01:38:46.077Z,19.73
2019-01-17T01:41:23.587Z,23.47
2019-01-17T01:44:08.140Z,23.23
2019-01-17T01:46:59.867Z,21.07
2019-01-17T01:49:59.949Z,21.50
2019-01-17T01:52:38.111Z,21.13
2019-01-17T01:55:07.111Z,22.23
2019-01-17T01:57:36.039Z,18.60
2019-01-17T02:00:06.607Z,20.47
2019-01-17T02:02:35.566Z,18.00
2019-01-17T02:05:04.949Z,21.67
2019-01-17T02:07:34.187Z,19.00
2019-01-17T02:10:03.181Z,17.53
2019-01-17T02:12:32.045Z,20.63
2019-01-17T02:15:00.932Z,19.00
2019-01-17T02:17:29.935Z,19.30
2019-01-17T02:19:59.079Z,18.10
2019-01-17T02:22:28.025Z,19.33
2019-01-17T02:24:56.911Z,17.60
2019-01-17T02:27:25.780Z,17.63
2019-01-17T02:29:54.648Z,16.97
2019-01-17T02:32:23.554Z,17.23
2019-01-17T02:34:52.453Z,16.97
2019-01-17T02:37:21.347Z,14.90
2019-01-17T02:39:50.174Z,15.40
2019-01-17T02:42:18.999Z,14.60
2019-01-17T02:44:47.914Z,12.57
2019-01-17T02:47:16.716Z,14.10
2019-01-17T02:49:45.580Z,11.63
2019-01-17T02:52:14.383Z,10.80
2019-01-17T02:54:43.182Z,9.67
2019-01-17T02:57:11.998Z,10.53
2019-01-17T02:59:40.866Z,10.57
2019-01-17T03:02:09.837Z,12.33
2019-01-17T03:04:38.787Z,10.23
2019-01-17T03:07:07.767Z,10.50
2019-01-17T03:09:36.572Z,10.87
2019-01-17T03:12:05.441Z,8.73
2019-01-17T03:14:34.303Z,9.83
2019-01-17T03:17:03.281Z,7.70
2019-01-17T03:19:32.077Z,8.63
2019-01-17T03:22:00.950Z,7.73
2019-01-17T03:24:29.745Z,7.37
2019-01-17T03:26:58.634Z,6.07
2019-01-17T03:29:27.498Z,5.90
2019-01-17T03:31:56.311Z,5.93
2019-01-17T03:34:25.090Z,5.90
2019-01-17T03:36:53.932Z,5.37
2019-01-17T03:39:22.866Z,5.80
2019-01-17T03:41:51.780Z,7.40
2019-01-17T03:44:20.707Z,5.50
2019-01-17T03:46:49.598Z,5.03
2019-01-17T03:49:18.523Z,4.83
2019-01-17T03:51:47.393Z,5.17
2019-01-17T03:54:16.318Z,5.00
2019-01-17T03:56:45.231Z,4.40
2019-01-17T03:59:14.043Z,4.97
2019-01-17T04:01:42.848Z,5.20
2019-01-17T04:04:11.652Z,5.17
2019-01-17T04:06:40.631Z,6.60
2019-01-17T04:09:09.504Z,8.63
2019-01-17T04:11:38.363Z,9.23
2019-01-17T04:14:07.259Z,6.90
2019-01-17T04:16:36.150Z,6.20
2019-01-17T04:19:05.143Z,6.63
2019-01-17T04:21:33.935Z,6.10
2019-01-17T04:24:02.866Z,6.70
2019-01-17T04:26:31.703Z,5.73
2019-01-17T04:29:00.519Z,6.27
2019-01-17T04:31:29.386Z,6.90
2019-01-17T04:33:58.221Z,6.53
2019-01-17T04:36:27.207Z,6.63
2019-01-17T04:38:56.042Z,5.93
2019-01-17T04:41:24.916Z,7.83
2019-01-17T04:43:53.814Z,4.90
2019-01-17T04:46:22.696Z,5.53
2019-01-17T04:48:51.585Z,4.67
2019-01-17T04:51:20.488Z,5.10
2019-01-17T04:53:49.302Z,5.87
2019-01-17T04:56:18.139Z,5.70
2019-01-17T04:58:46.957Z,5.27
2019-01-17T05:01:15.832Z,6.13
2019-01-17T05:03:44.646Z,4.90
2019-01-17T05:06:13.590Z,7.30
2019-01-17T05:08:42.403Z,5.23
2019-01-17T05:11:11.303Z,7.17
2019-01-17T05:13:40.187Z,5.17
2019-01-17T05:16:09.131Z,4.67
2019-01-17T05:18:38.065Z,7.47
2019-01-17T05:21:06.957Z,3.80
2019-01-17T05:23:35.760Z,4.43
2019-01-17T05:26:04.619Z,6.27
2019-01-17T05:28:33.446Z,5.63
2019-01-17T05:31:02.320Z,5.67
2019-01-17T05:33:31.245Z,6.87
2019-01-17T05:36:00.218Z,5.93
2019-01-17T05:38:29.019Z,6.13
2019-01-17T05:40:57.843Z,7.67
2019-01-17T05:43:26.647Z,7.03
2019-01-17T05:45:55.491Z,5.97
2019-01-17T05:48:24.303Z,7.17
2019-01-17T05:50:53.235Z,5.20
2019-01-17T05:53:22.032Z,7.27
2019-01-17T05:55:50.972Z,6.97
2019-01-17T05:58:19.820Z,7.40
2019-01-17T06:00:48.720Z,8.43
2019-01-17T06:03:17.577Z,7.00
2019-01-17T06:05:46.478Z,6.43
2019-01-17T06:08:15.287Z,8.00
2019-01-17T06:10:44.135Z,6.80
2019-01-17T06:13:13.214Z,6.30
2019-01-17T06:15:43.477Z,6.63
2019-01-17T06:18:12.450Z,8.93
2019-01-17T06:20:41.335Z,7.37
2019-01-17T06:23:10.215Z,9.37
2019-01-17T06:25:39.132Z,8.47
2019-01-17T06:28:08.002Z,8.43
2019-01-17T06:30:36.846Z,7.60
2019-01-17T06:33:05.799Z,9.83
2019-01-17T06:35:34.682Z,9.10
2019-01-17T06:38:03.647Z,7.43
2019-01-17T06:40:33.022Z,10.83
2019-01-17T06:43:01.826Z,8.27
2019-01-17T06:45:30.801Z,7.97
2019-01-17T06:47:59.770Z,7.87
2019-01-17T06:50:28.695Z,9.40
2019-01-17T06:52:57.519Z,12.23
2019-01-17T06:55:26.407Z,7.13
2019-01-17T06:57:55.213Z,9.37
2019-01-17T07:00:24.127Z,9.37
2019-01-17T07:02:53.081Z,9.43
2019-01-17T07:05:22.026Z,8.30
2019-01-17T07:07:50.859Z,8.30
2019-01-17T07:10:19.757Z,8.13
2019-01-17T07:12:48.694Z,8.80
2019-01-17T07:15:17.687Z,9.37
2019-01-17T07:17:46.498Z,9.60
2019-01-17T07:20:15.760Z,10.77
2019-01-17T07:22:45.117Z,10.37
2019-01-17T07:25:17.046Z,10.87
2019-01-17T07:27:45.891Z,10.27
2019-01-17T07:30:17.486Z,9.67
2019-01-17T07:32:46.556Z,13.47
2019-01-17T07:35:15.499Z,9.97
2019-01-17T07:37:44.534Z,12.10
2019-01-17T07:40:13.854Z,10.50
2019-01-17T07:42:43.019Z,12.57
2019-01-17T07:45:15.323Z,11.27
2019-01-17T07:47:44.306Z,12.93
2019-01-17T07:50:13.386Z,13.33
2019-01-17T07:52:42.554Z,12.63
2019-01-17T07:55:11.614Z,13.43
2019-01-17T07:57:40.519Z,11.30
2019-01-17T08:00:12.557Z,11.90
2019-01-17T08:02:41.561Z,12.23
2019-01-17T08:05:10.762Z,13.33
2019-01-17T08:07:39.771Z,11.97
2019-01-17T08:10:10.863Z,10.43
2019-01-17T08:12:39.939Z,14.67
2019-01-17T08:15:09.915Z,14.83
2019-01-17T08:17:38.870Z,13.83
2019-01-17T08:20:11.136Z,15.20
2019-01-17T08:22:40.136Z,12.17
2019-01-17T08:25:09.538Z,11.97
2019-01-17T08:27:38.475Z,10.90
2019-01-17T08:30:11.309Z,11.40
2019-01-17T08:32:40.150Z,14.30
2019-01-17T08:35:10.445Z,11.33
2019-01-17T08:37:39.467Z,11.10
2019-01-17T08:40:20.275Z,13.33
2019-01-17T08:42:46.209Z,11.80
2019-01-17T08:45:15.206Z,11.37
2019-01-17T08:47:44.162Z,11.57
2019-01-17T08:50:13.479Z,10.43
2019-01-17T08:52:42.426Z,13.33
2019-01-17T08:55:11.419Z,10.63
2019-01-17T08:57:40.238Z,10.37
2019-01-17T09:00:12.426Z,12.40
2019-01-17T09:02:41.384Z,8.63
2019-01-17T09:05:11.080Z,10.20
2019-01-17T09:07:40.050Z,10.73
2019-01-17T09:10:12.344Z,9.73
2019-01-17T09:12:41.641Z,10.10
2019-01-17T09:15:12.534Z,9.77
2019-01-17T09:17:41.555Z,9.17
2019-01-17T09:20:12.846Z,9.63
2019-01-17T09:22:42.015Z,12.27
2019-01-17T09:25:12.658Z,10.83
2019-01-17T09:27:41.761Z,10.10
2019-01-17T09:30:13.341Z,10.50
2019-01-17T09:32:42.461Z,10.50
2019-01-17T09:35:12.758Z,9.30
2019-01-17T09:37:46.114Z,11.37
2019-01-17T09:40:17.399Z,12.10
2019-01-17T09:42:46.365Z,11.33
2019-01-17T09:45:15.382Z,13.13
2019-01-17T09:47:44.414Z,12.97
2019-01-17T09:50:18.150Z,11.20
2019-01-17T09:52:47.503Z,11.20
2019-01-17T09:55:17.631Z,10.77
2019-01-17T09:57:46.589Z,14.57
2019-01-17T10:00:21.381Z,12.00
2019-01-17T10:02:50.287Z,13.97
2019-01-17T10:05:19.514Z,13.67
2019-01-17T10:07:49.297Z,12.87
2019-01-17T10:10:18.818Z,11.13
2019-01-17T10:12:49.263Z,14.07
2019-01-17T10:15:47.922Z,12.27
2019-01-17T10:18:47.069Z,13.33
2019-01-17T10:22:00.506Z,15.00
2019-01-17T10:24:54.347Z,14.33
2019-01-17T10:27:54.238Z,16.03
2019-01-17T10:30:47.051Z,16.03
2019-01-17T10:33:47.118Z,18.70
2019-01-17T10:37:01.502Z,16.13
2019-01-17T10:39:49.279Z,16.43
2019-01-17T10:43:10.030Z,16.90
2019-01-17T10:46:18.897Z,15.37
2019-01-17T10:49:17.549Z,15.80
2019-01-17T10:52:09.487Z,17.30
2019-01-17T10:55:25.320Z,14.57
2019-01-17T10:58:20.641Z,13.60
2019-01-17T11:01:01.278Z,15.37
2019-01-17T11:03:50.607Z,16.27
2019-01-17T11:06:33.316Z,16.87
2019-01-17T11:09:41.204Z,16.90
2019-01-17T11:12:48.566Z,17.43
2019-01-17T11:15:52.155Z,14.13
2019-01-17T11:18:35.194Z,16.13
2019-01-17T11:21:43.194Z,16.27
2019-01-17T11:24:37.998Z,16.87
2019-01-17T11:27:44.459Z,16.77
2019-01-17T11:30:53.357Z,12.53
2019-01-17T11:33:45.233Z,14.90
2019-01-17T11:36:49.251Z,13.37
2019-01-17T11:39:42.475Z,14.00
2019-01-17T11:42:54.308Z,17.47
2019-01-17T11:45:48.965Z,13.30
2019-01-17T11:49:01.423Z,14.90
2019-01-17T11:51:57.575Z,12.87
2019-01-17T11:55:19.381Z,13.33
2019-01-17T11:58:28.089Z,15.40
2019-01-17T12:01:22.020Z,18.07
2019-01-17T12:04:31.274Z,13.77
2019-01-17T12:07:02.586Z,14.73
2019-01-17T12:09:31.512Z,15.00
2019-01-17T12:12:00.501Z,13.40
2019-01-17T12:14:29.415Z,13.90
2019-01-17T12:16:58.303Z,15.83
2019-01-17T12:19:27.214Z,12.50
2019-01-17T12:21:56.227Z,15.10
2019-01-17T12:24:25.101Z,14.77
2019-01-17T12:26:54.026Z,15.80
2019-01-17T12:29:22.842Z,17.33
2019-01-17T12:31:51.780Z,17.17
2019-01-17T12:34:20.712Z,15.17
2019-01-17T12:36:49.552Z,18.30
2019-01-17T12:39:18.355Z,15.53
2019-01-17T12:41:47.199Z,11.83
2019-01-17T12:44:16.007Z,12.70
2019-01-17T12:46:44.918Z,9.90
2019-01-17T12:49:14.826Z,8.60
2019-01-17T12:51:43.630Z,7.77
2019-01-17T12:54:12.491Z,7.60
2019-01-17T12:56:41.309Z,7.03
2019-01-17T12:59:10.151Z,9.37
2019-01-17T13:01:38.979Z,11.00
2019-01-17T13:04:09.463Z,12.03
2019-01-17T13:06:38.312Z,13.97
2019-01-17T13:09:08.695Z,11.77
2019-01-17T13:11:37.668Z,14.57
2019-01-17T13:14:06.579Z,11.97
2019-01-17T13:16:35.485Z,12.97
2019-01-17T13:19:04.876Z,10.50
2019-01-17T13:21:33.858Z,12.87
2019-01-17T13:24:02.818Z,10.33
2019-01-17T13:26:31.710Z,11.53
2019-01-17T13:29:00.528Z,11.60
2019-01-17T13:31:29.421Z,11.90
2019-01-17T13:33:58.242Z,8.57
2019-01-17T13:36:27.162Z,9.63
2019-01-17T13:38:56.007Z,10.77
2019-01-17T13:41:24.883Z,11.37
2019-01-17T13:43:54.139Z,10.73
2019-01-17T13:46:23.042Z,10.50
2019-01-17T13:48:51.879Z,10.73
2019-01-17T13:51:20.807Z,10.93
2019-01-17T13:53:49.777Z,9.47
2019-01-17T13:56:18.625Z,11.57
2019-01-17T13:58:47.518Z,10.20
2019-01-17T14:01:16.402Z,9.07
2019-01-17T14:03:45.426Z,9.73
2019-01-17T14:06:15.021Z,8.03
2019-01-17T14:08:44.510Z,6.20
2019-01-17T14:11:13.415Z,5.77
2019-01-17T14:13:42.428Z,6.77
2019-01-17T14:16:11.243Z,6.73
2019-01-17T14:18:40.111Z,5.90
2019-01-17T14:21:09.015Z,6.77
2019-01-17T14:23:37.822Z,5.83
2019-01-17T14:26:06.735Z,5.70
2019-01-17T14:28:35.640Z,6.50
2019-01-17T14:31:04.625Z,6.67
2019-01-17T14:33:33.473Z,6.97
2019-01-17T14:36:02.464Z,6.67
2019-01-17T14:38:31.300Z,7.00
2019-01-17T14:41:00.118Z,8.63
2019-01-17T14:43:28.938Z,6.80
2019-01-17T14:45:57.742Z,7.90
2019-01-17T14:48:26.579Z,7.17
2019-01-17T14:50:55.462Z,8.53
2019-01-17T14:53:24.330Z,7.70
2019-01-17T14:55:53.272Z,5.80
2019-01-17T14:58:22.142Z,5.37
2019-01-17T15:00:51.023Z,5.80
2019-01-17T15:03:19.840Z,4.30
2019-01-17T15:05:48.717Z,6.27
2019-01-17T15:08:17.523Z,4.97
2019-01-17T15:10:46.336Z,4.53
2019-01-17T15:13:15.731Z,6.70
2019-01-17T15:15:45.758Z,3.93
2019-01-17T15:18:14.998Z,4.57
2019-01-17T15:20:44.145Z,4.93
2019-01-17T15:23:13.506Z,5.33
2019-01-17T15:25:42.444Z,3.87
2019-01-17T15:28:11.624Z,4.57
2019-01-17T15:30:40.659Z,3.77
2019-01-17T15:33:09.646Z,4.37
2019-01-17T15:35:38.651Z,5.43
2019-01-17T15:38:07.736Z,4.00
2019-01-17T15:40:36.832Z,4.00
2019-01-17T15:43:06.050Z,4.63
2019-01-17T15:45:35.111Z,4.00
2019-01-17T15:48:04.300Z,3.47
2019-01-17T15:50:33.343Z,4.60
2019-01-17T15:53:02.242Z,3.70
2019-01-17T15:55:31.169Z,3.40
2019-01-17T15:58:00.102Z,4.33
2019-01-17T16:00:31.239Z,4.80
2019-01-17T16:03:00.112Z,2.60
2019-01-17T16:05:28.991Z,2.47
2019-01-17T16:07:57.794Z,3.77
2019-01-17T16:10:26.681Z,3.20
2019-01-17T16:12:55.485Z,3.80
2019-01-17T16:15:26.122Z,2.80
2019-01-17T16:17:55.215Z,3.23
2019-01-17T16:20:24.098Z,3.10
2019-01-17T16:22:53.584Z,5.53
2019-01-17T16:25:22.590Z,3.37
2019-01-17T16:27:53.148Z,2.30
2019-01-17T16:30:27.810Z,1.60
2019-01-17T16:32:56.730Z,2.20
2019-01-17T16:35:25.592Z,2.27
2019-01-17T16:37:54.586Z,3.57
2019-01-17T16:40:23.480Z,4.53
2019-01-17T16:42:52.380Z,4.77
2019-01-17T16:45:21.911Z,3.80
2019-01-17T16:47:50.747Z,3.23
2019-01-17T16:50:21.618Z,4.57
2019-01-17T16:52:50.449Z,2.90
2019-01-17T16:55:19.458Z,3.80
2019-01-17T16:57:49.161Z,3.17
2019-01-17T17:00:21.354Z,4.33
2019-01-17T17:02:50.160Z,5.77
2019-01-17T17:05:19.203Z,4.80
2019-01-17T17:07:48.026Z,4.57
2019-01-17T17:10:16.970Z,4.27
2019-01-17T17:12:45.783Z,2.50
2019-01-17T17:15:16.081Z,5.77
2019-01-17T17:17:44.985Z,2.00
2019-01-17T17:20:16.122Z,6.03
2019-01-17T17:22:45.388Z,4.50
2019-01-17T17:25:14.678Z,7.17
2019-01-17T17:27:43.659Z,5.37
2019-01-17T17:30:17.836Z,4.13
2019-01-17T17:32:46.867Z,7.07
2019-01-17T17:35:16.139Z,3.40
2019-01-17T17:37:45.171Z,6.87
2019-01-17T17:40:19.851Z,4.40
2019-01-17T17:42:48.887Z,4.70
2019-01-17T17:45:17.897Z,3.03
2019-01-17T17:47:47.689Z,4.10
2019-01-17T17:50:19.638Z,4.40
2019-01-17T17:52:48.598Z,5.13
2019-01-17T17:55:17.630Z,3.20
2019-01-17T17:57:46.746Z,7.63
2019-01-17T18:00:23.886Z,6.47
2019-01-17T18:02:53.247Z,5.40
2019-01-17T18:05:22.375Z,8.57
2019-01-17T18:07:51.362Z,7.63
2019-01-17T18:10:20.295Z,9.07
2019-01-17T18:12:49.155Z,3.10
2019-01-17T18:15:19.299Z,6.93
2019-01-17T18:17:48.630Z,5.33
2019-01-17T18:20:17.603Z,7.47
2019-01-17T18:22:46.542Z,7.60
2019-01-17T18:25:15.444Z,7.47
2019-01-17T18:27:44.414Z,8.60
2019-01-17T18:30:18.954Z,8.70
2019-01-17T18:32:47.899Z,7.93
2019-01-17T18:35:16.890Z,9.93
2019-01-17T18:37:45.926Z,7.60
2019-01-17T18:40:16.048Z,7.97
2019-01-17T18:42:44.990Z,8.80
2019-01-17T18:45:16.312Z,10.47
2019-01-17T18:47:45.199Z,9.83
2019-01-17T18:50:16.978Z,7.67
2019-01-17T18:52:45.915Z,7.40
2019-01-17T18:55:14.987Z,8.83
2019-01-17T18:57:43.968Z,11.67
2019-01-17T19:00:22.310Z,8.03
2019-01-17T19:02:51.354Z,11.47
2019-01-17T19:05:20.817Z,11.30
2019-01-17T19:07:50.359Z,9.97
2019-01-17T19:10:19.691Z,12.73
2019-01-17T19:12:48.907Z,9.67
2019-01-17T19:15:20.062Z,12.57
2019-01-17T19:17:48.927Z,9.43
2019-01-17T19:20:21.465Z,11.80
2019-01-17T19:22:50.586Z,11.57
2019-01-17T19:25:19.604Z,7.97
2019-01-17T19:27:48.751Z,9.00
2019-01-17T19:30:20.938Z,8.73
2019-01-17T19:32:49.870Z,8.40
2019-01-17T19:35:19.614Z,7.03
2019-01-17T19:37:48.569Z,8.50
2019-01-17T19:40:19.121Z,10.77
2019-01-17T19:42:47.926Z,8.17
2019-01-17T19:45:17.145Z,6.57
2019-01-17T19:47:46.390Z,8.50
2019-01-17T19:50:18.938Z,6.67
2019-01-17T19:52:47.811Z,10.40
2019-01-17T19:55:16.748Z,4.37
2019-01-17T19:57:45.681Z,9.03
2019-01-17T20:00:15.591Z,7.40
2019-01-17T20:02:44.861Z,9.17
2019-01-17T20:05:15.407Z,8.90
2019-01-17T20:07:44.255Z,5.30
2019-01-17T20:10:19.070Z,5.27
2019-01-17T20:12:47.946Z,6.93
2019-01-17T20:15:16.904Z,8.20
2019-01-17T20:17:45.867Z,4.80
2019-01-17T20:20:15.110Z,5.53
2019-01-17T20:22:44.091Z,5.23
2019-01-17T20:25:13.159Z,8.67
2019-01-17T20:27:42.118Z,6.33
2019-01-17T20:30:14.792Z,8.27
2019-01-17T20:32:43.602Z,6.83
2019-01-17T20:35:12.577Z,6.23
2019-01-17T20:37:41.482Z,6.93
2019-01-17T20:40:12.370Z,5.37
2019-01-17T20:42:41.278Z,8.27
2019-01-17T20:45:11.382Z,7.20
2019-01-17T20:47:40.387Z,6.20
2019-01-17T20:50:12.409Z,6.20
2019-01-17T20:52:41.310Z,6.60
2019-01-17T20:55:11.126Z,3.63
2019-01-17T20:57:41.871Z,4.03
2019-01-17T21:00:16.059Z,5.53
2019-01-17T21:02:45.126Z,6.43
2019-01-17T21:05:15.410Z,6.70
2019-01-17T21:07:44.598Z,3.57
2019-01-17T21:10:14.403Z,5.00
2019-01-17T21:12:43.358Z,7.53
2019-01-17T21:15:12.875Z,4.43
2019-01-17T21:17:41.682Z,5.00
2019-01-17T21:20:11.065Z,6.47
2019-01-17T21:22:43.877Z,6.47
2019-01-17T21:25:15.441Z,5.57
2019-01-17T21:27:44.326Z,9.43
2019-01-17T21:30:21.519Z,4.20
2019-01-17T21:32:50.350Z,7.33
2019-01-17T21:35:19.354Z,6.57
2019-01-17T21:37:50.614Z,7.37
2019-01-17T21:40:21.344Z,6.07
2019-01-17T21:42:50.713Z,4.67
2019-01-17T21:45:21.664Z,7.57
2019-01-17T21:47:51.065Z,7.40
2019-01-17T21:50:25.821Z,6.67
2019-01-17T21:52:55.108Z,4.53
2019-01-17T21:55:24.324Z,7.20
2019-01-17T21:57:53.747Z,6.33
2019-01-17T22:00:24.728Z,4.03
2019-01-17T22:02:53.977Z,5.83
2019-01-17T22:05:23.254Z,3.53
2019-01-17T22:07:52.675Z,6.13
2019-01-17T22:10:22.992Z,4.77
2019-01-17T22:12:52.491Z,5.53
2019-01-17T22:15:23.487Z,5.93
2019-01-17T22:17:53.260Z,7.70
2019-01-17T22:20:22.768Z,8.50
2019-01-17T22:22:52.129Z,5.20
2019-01-17T22:25:21.579Z,7.23
2019-01-17T22:27:52.393Z,6.90
2019-01-17T22:30:26.382Z,7.67
2019-01-17T22:32:55.804Z,4.80
2019-01-17T22:35:25.197Z,3.83
2019-01-17T22:37:55.355Z,7.10
2019-01-17T22:40:24.570Z,9.20
2019-01-17T22:42:53.959Z,4.73
2019-01-17T22:45:25.678Z,5.73
2019-01-17T22:47:55.083Z,6.77
2019-01-17T22:50:24.369Z,4.27
2019-01-17T22:52:53.533Z,5.73
2019-01-17T22:55:22.862Z,9.03
2019-01-17T22:57:52.030Z,4.07
2019-01-17T23:00:42.569Z,5.47
2019-01-17T23:03:12.046Z,3.53
2019-01-17T23:05:41.259Z,5.50
2019-01-17T23:08:10.564Z,4.27
2019-01-17T23:10:39.681Z,6.33
2019-01-17T23:13:08.909Z,8.10
2019-01-17T23:15:38.075Z,4.43
2019-01-17T23:18:07.369Z,8.50
2019-01-17T23:20:37.585Z,4.50
2019-01-17T23:23:07.139Z,5.20
2019-01-17T23:25:36.295Z,3.90
2019-01-17T23:28:05.644Z,4.30
2019-01-17T23:30:34.894Z,2.83
2019-01-17T23:33:04.572Z,4.47
2019-01-17T23:35:34.976Z,7.00
2019-01-17T23:38:04.278Z,4.23
2019-01-17T23:40:33.401Z,3.83
2019-01-17T23:43:02.471Z,4.40
2019-01-17T23:45:31.916Z,2.57
2019-01-17T23:48:00.955Z,2.90
2019-01-17T23:50:30.106Z,3.23
2019-01-17T23:52:59.424Z,1.70
2019-01-17T23:55:29.944Z,2.00
2019-01-17T23:57:59.291Z,2.63
